createdAt,value
2023-01-28T00:01:42.828Z,17.555436
2023-01-28T00:06:44.610Z,17.728448
2023-01-28T00:11:46.623Z,17.37051
2023-01-28T00:16:48.421Z,16.820834
2023-01-28T00:21:50.090Z,17.486326
2023-01-28T00:26:51.808Z,17.637084
2023-01-28T00:31:53.588Z,17.669746
2023-01-28T00:36:55.550Z,17.54572
2023-01-28T00:41:57.352Z,17.313396
2023-01-28T00:46:59.457Z,17.300586
2023-01-28T00:52:01.091Z,16.705384
2023-01-28T00:57:02.977Z,16.360772
2023-01-28T01:02:04.530Z,15.533504
2023-01-28T01:07:06.203Z,15.124368
2023-01-28T01:12:07.810Z,15.842008
2023-01-28T01:17:09.529Z,15.904496
2023-01-28T01:22:11.215Z,16.68807
2023-01-28T01:27:13.771Z,16.298976
2023-01-28T01:32:15.557Z,16.680308
2023-01-28T01:37:17.561Z,16.297388
2023-01-28T01:42:19.495Z,16.74669
2023-01-28T01:47:21.543Z,15.923208
2023-01-28T01:52:23.644Z,16.023392
2023-01-28T01:57:25.617Z,15.864248
2023-01-28T02:02:27.617Z,16.12112
2023-01-28T02:07:29.472Z,16.39589
2023-01-28T02:12:31.381Z,16.119872
2023-01-28T02:17:33.157Z,16.135056
2023-01-28T02:22:35.003Z,16.16746
2023-01-28T02:27:37.064Z,16.107252
2023-01-28T02:32:38.940Z,16.505532
2023-01-28T02:37:40.935Z,16.01122
2023-01-28T02:42:42.977Z,16.321936
2023-01-28T02:47:44.801Z,16.431388
2023-01-28T02:52:46.598Z,16.164624
2023-01-28T02:57:48.523Z,16.047844
2023-01-28T03:02:50.308Z,15.332946
2023-01-28T03:07:52.282Z,15.880138
2023-01-28T03:12:54.001Z,15.655752
2023-01-28T03:17:55.720Z,15.991626
2023-01-28T03:22:57.714Z,16.063124
2023-01-28T03:27:59.671Z,15.10054
2023-01-28T03:33:01.207Z,15.190398
2023-01-28T03:38:02.795Z,15.455208
2023-01-28T03:43:04.236Z,15.32722
2023-01-28T03:48:06.245Z,15.658222
2023-01-28T03:53:08.151Z,15.287936
2023-01-28T03:58:10.131Z,15.396248
2023-01-28T04:03:12.044Z,15.417606
2023-01-28T04:08:13.649Z,16.550556
2023-01-28T04:13:15.340Z,15.850394
2023-01-28T04:18:17.114Z,15.681792
2023-01-28T04:23:19.095Z,15.74508
2023-01-28T04:28:21.051Z,16.396514
2023-01-28T04:33:22.604Z,16.98926
2023-01-28T04:38:24.393Z,16.672546
2023-01-28T04:43:26.184Z,16.912904
2023-01-28T04:48:27.951Z,17.62958
2023-01-28T04:53:29.644Z,17.672216
2023-01-28T04:58:31.736Z,17.562126
2023-01-28T05:03:36.200Z,18.944132
2023-01-28T05:08:38.250Z,19.203582
2023-01-28T05:13:40.248Z,19.830768
2023-01-28T05:18:44.651Z,19.741358
2023-01-28T05:23:46.549Z,20.23103
2023-01-28T05:28:48.807Z,20.811876
2023-01-28T05:33:50.695Z,21.326258
2023-01-28T05:38:52.655Z,22.696298
2023-01-28T05:43:54.389Z,22.291938
2023-01-28T05:48:56.223Z,23.21889
2023-01-28T05:53:58.211Z,23.405988
2023-01-28T05:59:00.208Z,23.703488
2023-01-28T06:04:02.038Z,24.394018
2023-01-28T06:09:03.546Z,24.768552
2023-01-28T06:14:05.197Z,24.861002
2023-01-28T06:19:06.713Z,25.619068
2023-01-28T06:24:08.384Z,24.960916
2023-01-28T06:29:10.075Z,25.387734
2023-01-28T06:34:11.661Z,26.121822
2023-01-28T06:39:13.280Z,26.417044
2023-01-28T06:44:14.747Z,26.128838
2023-01-28T06:49:16.217Z,26.540472
2023-01-28T06:54:17.782Z,27.711462
2023-01-28T06:59:19.641Z,27.502002
2023-01-28T07:04:21.541Z,27.419458
2023-01-28T07:09:23.540Z,28.33382
2023-01-28T07:14:25.034Z,28.332286
2023-01-28T07:19:28.243Z,28.500902
2023-01-28T07:24:29.806Z,29.123734
2023-01-28T07:29:31.645Z,28.717636
2023-01-28T07:34:33.068Z,28.662462
2023-01-28T07:39:34.529Z,28.66865
2023-01-28T07:44:36.151Z,29.19963
2023-01-28T07:49:37.716Z,30.16146
2023-01-28T07:54:39.365Z,30.763544
2023-01-28T07:59:41.039Z,30.235618
2023-01-28T08:04:42.662Z,30.17781
2023-01-28T08:09:44.544Z,29.648976
2023-01-28T08:14:46.014Z,31.246908
2023-01-28T08:19:47.827Z,31.105866
2023-01-28T08:24:49.995Z,32.317336
2023-01-28T08:29:52.011Z,30.850716
2023-01-28T08:34:53.961Z,31.85031
2023-01-28T08:39:55.812Z,30.936366
2023-01-28T08:44:57.311Z,31.99157
2023-01-28T08:49:58.933Z,32.73117
2023-01-28T08:55:00.540Z,32.893396
2023-01-28T09:00:02.545Z,33.246328
2023-01-28T09:05:04.380Z,32.806876
2023-01-28T09:10:06.246Z,33.03201
2023-01-28T09:15:07.909Z,33.009932
2023-01-28T09:20:09.533Z,32.146508
2023-01-28T09:25:11.200Z,31.239174
2023-01-28T09:30:13.834Z,31.687446
2023-01-28T09:35:16.139Z,32.318002
2023-01-28T09:40:18.178Z,32.946144
2023-01-28T09:45:20.126Z,31.67286
2023-01-28T09:50:22.223Z,33.057832
2023-01-28T09:55:24.405Z,33.513382
2023-01-28T10:00:27.071Z,32.638476
2023-01-28T10:05:29.188Z,33.288476
2023-01-28T10:10:31.440Z,33.855714
2023-01-28T10:15:33.544Z,34.643678
2023-01-28T10:20:35.346Z,34.08659
2023-01-28T10:25:37.545Z,33.759046
2023-01-28T10:30:39.861Z,33.574078
2023-01-28T10:35:41.734Z,34.213492
2023-01-28T10:40:43.825Z,33.662374
2023-01-28T10:45:45.645Z,35.385302
2023-01-28T10:50:47.530Z,36.460208
2023-01-28T10:55:49.969Z,35.288402
2023-01-28T11:00:52.020Z,35.470274
2023-01-28T11:05:54.079Z,34.925318
2023-01-28T11:10:55.827Z,33.233738
2023-01-28T11:15:57.438Z,34.32893
2023-01-28T11:20:58.900Z,32.809088
2023-01-28T11:26:00.910Z,35.543332
2023-01-28T11:31:03.435Z,33.454012
2023-01-28T11:36:05.088Z,32.82453
2023-01-28T11:41:06.785Z,34.613662
2023-01-28T11:46:08.959Z,34.50132
2023-01-28T11:51:10.619Z,33.773606
2023-01-28T11:56:12.640Z,32.60956
2023-01-28T12:01:14.750Z,33.42796
2023-01-28T12:06:16.586Z,35.01824
2023-01-28T12:11:18.342Z,34.826652
2023-01-28T12:16:19.861Z,33.973796
2023-01-28T12:21:21.734Z,35.439594
2023-01-28T12:26:23.554Z,34.165374
2023-01-28T12:31:25.725Z,32.686364
2023-01-28T12:36:28.035Z,32.892296
2023-01-28T12:41:29.910Z,32.238322
2023-01-28T12:46:31.792Z,31.181776
2023-01-28T12:51:33.666Z,32.610224
2023-01-28T12:56:35.886Z,32.876178
2023-01-28T13:01:38.005Z,33.926128
2023-01-28T13:06:39.836Z,33.932086
2023-01-28T13:11:41.706Z,34.149484
2023-01-28T13:16:44.017Z,33.607634
2023-01-28T13:21:49.428Z,33.943334
2023-01-28T13:26:52.407Z,34.678552
2023-01-28T13:31:54.935Z,33.107268
2023-01-28T13:36:57.301Z,34.359828
2023-01-28T13:41:59.390Z,33.062908
2023-01-28T13:47:01.331Z,31.908808
2023-01-28T13:52:03.235Z,32.33411
2023-01-28T13:57:05.138Z,33.525524
2023-01-28T14:02:06.899Z,33.75154
2023-01-28T14:07:08.401Z,32.769128
2023-01-28T14:12:10.091Z,33.35623
2023-01-28T14:17:11.646Z,32.842184
2023-01-28T14:22:13.458Z,32.666498
2023-01-28T14:27:15.123Z,32.565852
2023-01-28T14:32:17.268Z,33.02627
2023-01-28T14:37:19.221Z,32.839322
2023-01-28T14:42:21.379Z,32.6632
2023-01-28T14:47:23.271Z,30.69225
2023-01-28T14:52:24.995Z,30.067896
2023-01-28T14:57:27.097Z,29.851136
2023-01-28T15:02:29.118Z,30.66598
2023-01-28T15:07:30.693Z,29.72422
2023-01-28T15:12:32.723Z,30.243786
2023-01-28T15:17:34.177Z,29.77212
2023-01-28T15:22:36.298Z,29.874978
2023-01-28T15:27:38.265Z,29.67609
2023-01-28T15:32:39.990Z,29.39738
2023-01-28T15:37:41.459Z,30.90832
2023-01-28T15:42:42.932Z,30.041178
2023-01-28T15:47:44.710Z,31.055524
2023-01-28T15:52:46.428Z,30.496494
2023-01-28T15:57:48.235Z,30.330536
2023-01-28T16:02:50.252Z,30.269596
2023-01-28T16:07:52.138Z,30.027244
2023-01-28T16:12:53.853Z,30.408632
2023-01-28T16:17:55.457Z,29.480346
2023-01-28T16:22:57.152Z,29.788432
2023-01-28T16:27:58.792Z,29.574588
2023-01-28T16:33:00.563Z,29.331366
2023-01-28T16:38:02.183Z,29.488298
2023-01-28T16:43:03.922Z,29.084846
2023-01-28T16:48:05.539Z,28.38829
2023-01-28T16:53:07.526Z,27.964756
2023-01-28T16:58:09.016Z,28.418754
2023-01-28T17:03:12.338Z,28.517188
2023-01-28T17:08:14.425Z,28.071154
2023-01-28T17:13:16.515Z,27.736568
2023-01-28T17:18:18.317Z,27.923082
2023-01-28T17:23:20.129Z,27.122774
2023-01-28T17:28:21.938Z,27.35476
2023-01-28T17:33:23.932Z,27.212414
2023-01-28T17:38:25.718Z,26.947576
2023-01-28T17:43:27.725Z,27.008924
2023-01-28T17:48:29.949Z,26.393176
2023-01-28T17:53:31.861Z,26.495816
2023-01-28T17:58:34.102Z,26.032984
2023-01-28T18:03:36.435Z,26.14667
2023-01-28T18:08:38.312Z,25.68609
2023-01-28T18:13:40.677Z,26.432486
2023-01-28T18:18:42.838Z,25.442434
2023-01-28T18:23:45.000Z,25.567356
2023-01-28T18:28:47.280Z,25.524774
2023-01-28T18:33:50.227Z,24.950074
2023-01-28T18:38:53.481Z,25.30074
2023-01-28T18:43:56.961Z,25.007664
2023-01-28T18:49:00.388Z,24.724574
2023-01-28T18:54:03.888Z,24.28956
2023-01-28T18:59:07.534Z,24.253804
2023-01-28T19:04:11.739Z,23.955422
2023-01-28T19:09:15.215Z,24.007556
2023-01-28T19:14:18.531Z,23.879594
2023-01-28T19:19:23.133Z,24.110834
2023-01-28T19:24:26.994Z,24.19422
2023-01-28T19:29:30.870Z,24.196418
2023-01-28T19:34:35.397Z,24.43105
2023-01-28T19:39:38.928Z,23.41413
2023-01-28T19:44:42.671Z,22.887996
2023-01-28T19:49:46.590Z,22.999824
2023-01-28T19:54:50.265Z,23.164898
2023-01-28T19:59:54.413Z,23.87646
2023-01-28T20:05:01.099Z,22.794868
2023-01-28T20:10:05.303Z,22.30141
2023-01-28T20:15:09.178Z,22.669824
2023-01-28T20:20:13.236Z,22.457012
2023-01-28T20:25:18.133Z,22.36345
2023-01-28T20:30:22.749Z,22.672362
2023-01-28T20:35:27.361Z,22.000884
2023-01-28T20:40:30.949Z,21.948112
2023-01-28T20:45:34.436Z,21.866016
2023-01-28T20:50:37.803Z,22.331032
2023-01-28T20:55:41.249Z,22.399694
2023-01-28T21:00:44.076Z,21.853016
2023-01-28T21:05:46.831Z,21.45426
2023-01-28T21:10:49.313Z,21.604516
2023-01-28T21:15:51.928Z,21.626336
2023-01-28T21:20:54.557Z,21.208352
2023-01-28T21:25:56.851Z,22.416412
2023-01-28T21:30:59.145Z,22.174534
2023-01-28T21:36:01.859Z,21.32003
2023-01-28T21:41:04.329Z,21.482458
2023-01-28T21:46:07.048Z,21.43126
2023-01-28T21:51:09.458Z,21.49349
2023-01-28T21:56:11.164Z,21.129608
2023-01-28T22:01:13.128Z,21.556602
2023-01-28T22:06:14.837Z,21.7981
2023-01-28T22:11:16.805Z,20.79661
2023-01-28T22:16:18.895Z,21.147262
2023-01-28T22:21:20.731Z,20.780218
2023-01-28T22:26:22.511Z,20.52051
2023-01-28T22:31:24.744Z,20.97714
2023-01-28T22:36:27.677Z,20.77631
2023-01-28T22:41:29.591Z,20.914462
2023-01-28T22:46:33.135Z,20.04168
2023-01-28T22:51:35.270Z,19.932404
2023-01-28T22:56:37.286Z,21.473054
2023-01-28T23:01:38.913Z,20.110274
2023-01-28T23:06:40.551Z,20.064382
2023-01-28T23:11:42.030Z,19.97238
2023-01-28T23:16:44.062Z,19.934168
2023-01-28T23:21:45.608Z,19.646656
2023-01-28T23:26:47.104Z,20.070122
2023-01-28T23:31:48.672Z,19.946978
2023-01-28T23:36:50.417Z,20.669124
2023-01-28T23:41:52.165Z,20.452594
2023-01-28T23:46:53.703Z,21.068504
2023-01-28T23:51:55.380Z,20.78779
2023-01-28T23:56:57.275Z,20.564014
